Time,TemperatureF,DewpointF,PressureIn,WindDirection,WindDirectionDegrees,WindSpeedMPH,WindSpeedGustMPH,Humidity,HourlyPrecipIn,Conditions,Clouds,dailyrainin,SoftwareType,DateUTC
2013-08-12 00:08:00,80.3,77.0,30.07,WSW,246,2.0,3.0,89,0.00,,,0.00,weatherlink.com 1.10,2013-08-12 04:08:00,
2013-08-12 00:23:00,80.3,77.0,30.07,West,271,2.0,2.0,89,0.00,,,0.00,weatherlink.com 1.10,2013-08-12 04:23:00,
2013-08-12 00:38:00,80.2,77.0,30.07,West,277,1.0,2.0,89,0.00,,,0.00,weatherlink.com 1.10,2013-08-12 04:38:00,
2013-08-12 00:53:00,80.1,77.0,30.06,SSW,213,2.0,4.0,90,0.00,,,0.00,weatherlink.com 1.10,2013-08-12 04:53:00,
2013-08-12 01:08:00,79.9,77.0,30.06,WSW,250,0.0,2.0,90,0.00,,,0.00,weatherlink.com 1.10,2013-08-12 05:08:00,
2013-08-12 01:23:00,79.8,77.0,30.06,West,274,0.0,2.0,90,0.00,,,0.00,weatherlink.com 1.10,2013-08-12 05:23:00,
2013-08-12 01:38:00,79.7,77.0,30.06,West,264,0.0,2.0,90,0.00,,,0.00,weatherlink.com 1.10,2013-08-12 05:38:00,
2013-08-12 01:53:00,79.6,77.0,30.06,West,272,0.0,3.0,90,0.00,,,0.00,weatherlink.com 1.10,2013-08-12 05:53:00,
2013-08-12 02:08:00,79.4,77.0,30.05,West,270,0.0,2.0,91,0.00,,,0.00,weatherlink.com 1.10,2013-08-12 06:08:00,
2013-08-12 02:23:00,79.2,76.0,30.05,West,277,0.0,1.0,91,0.00,,,0.00,weatherlink.com 1.10,2013-08-12 06:23:00,
2013-08-12 02:38:00,79.0,77.0,30.05,West,278,0.0,3.0,92,0.00,,,0.00,weatherlink.com 1.10,2013-08-12 06:38:00,
2013-08-12 02:53:00,78.9,77.0,30.05,SSE,151,0.0,2.0,93,0.00,,,0.00,weatherlink.com 1.10,2013-08-12 06:53:00,
2013-08-12 03:09:00,78.7,77.0,30.04,West,270,0.0,1.0,93,0.00,,,0.00,weatherlink.com 1.10,2013-08-12 07:09:00,
2013-08-12 03:24:00,78.6,77.0,30.04,WNW,284,0.0,2.0,93,0.00,,,0.00,weatherlink.com 1.10,2013-08-12 07:24:00,
2013-08-12 03:39:00,78.5,76.0,30.04,West,267,0.0,3.0,93,0.00,,,0.00,weatherlink.com 1.10,2013-08-12 07:39:00,
2013-08-12 03:54:00,78.4,77.0,30.05,West,271,0.0,3.0,94,0.00,,,0.00,weatherlink.com 1.10,2013-08-12 07:54:00,
2013-08-12 04:09:00,78.2,76.0,30.05,West,267,0.0,0.0,94,0.00,,,0.00,weatherlink.com 1.10,2013-08-12 08:09:00,
2013-08-12 04:24:00,78.1,76.0,30.05,West,260,0.0,2.0,94,0.00,,,0.00,weatherlink.com 1.10,2013-08-12 08:24:00,
2013-08-12 04:39:00,78.0,76.0,30.05,West,260,0.0,1.0,94,0.00,,,0.00,weatherlink.com 1.10,2013-08-12 08:39:00,
2013-08-12 04:54:00,77.8,76.0,30.05,West,264,0.0,0.0,94,0.00,,,0.00,weatherlink.com 1.10,2013-08-12 08:54:00,
2013-08-12 05:09:00,77.7,76.0,30.04,WSW,255,0.0,1.0,94,0.00,,,0.00,weatherlink.com 1.10,2013-08-12 09:09:00,
2013-08-12 05:24:00,77.6,76.0,30.04,West,281,0.0,1.0,94,0.00,,,0.00,weatherlink.com 1.10,2013-08-12 09:24:00,
2013-08-12 05:39:00,77.6,76.0,30.04,West,277,0.0,2.0,94,0.00,,,0.00,weatherlink.com 1.10,2013-08-12 09:39:00,
2013-08-12 05:54:00,77.5,76.0,30.05,WNW,285,0.0,3.0,94,0.00,,,0.00,weatherlink.com 1.10,2013-08-12 09:54:00,
2013-08-12 06:10:00,77.4,76.0,30.05,West,268,0.0,1.0,94,0.00,,,0.00,weatherlink.com 1.10,2013-08-12 10:10:00,
2013-08-12 06:24:00,77.2,75.0,30.04,West,264,0.0,0.0,94,0.00,,,0.00,weatherlink.com 1.10,2013-08-12 10:24:00,
2013-08-12 06:39:00,77.1,75.0,30.05,WNW,298,0.0,0.0,94,0.00,,,0.00,weatherlink.com 1.10,2013-08-12 10:39:00,
2013-08-12 06:54:00,77.0,75.0,30.05,East,99,0.0,1.0,94,0.00,,,0.00,weatherlink.com 1.10,2013-08-12 10:54:00,
2013-08-12 07:09:00,77.2,75.0,30.05,WSW,253,0.0,1.0,94,0.00,,,0.00,weatherlink.com 1.10,2013-08-12 11:09:00,
2013-08-12 07:24:00,78.0,76.0,30.05,West,260,0.0,0.0,93,0.00,,,0.00,weatherlink.com 1.10,2013-08-12 11:24:00,
2013-08-12 07:39:00,78.9,77.0,30.05,WNW,298,0.0,3.0,92,0.00,,,0.00,weatherlink.com 1.10,2013-08-12 11:39:00,
2013-08-12 07:54:00,79.8,77.0,30.05,SSW,209,0.0,1.0,90,0.00,,,0.00,weatherlink.com 1.10,2013-08-12 11:54:00,
2013-08-12 08:09:00,80.6,77.0,30.05,NW,306,2.0,5.0,88,0.00,,,0.00,weatherlink.com 1.10,2013-08-12 12:09:00,
2013-08-12 08:24:00,81.6,77.0,30.05,NNW,331,3.0,4.0,86,0.00,,,0.00,weatherlink.com 1.10,2013-08-12 12:24:00,
2013-08-12 08:39:00,82.8,78.0,30.05,West,272,0.0,4.0,85,0.00,,,0.00,weatherlink.com 1.10,2013-08-12 12:39:00,
2013-08-12 08:54:00,83.9,78.0,30.05,WNW,282,0.0,3.0,82,0.00,,,0.00,weatherlink.com 1.10,2013-08-12 12:54:00,
2013-08-12 09:09:00,84.7,79.0,30.05,NW,306,2.0,5.0,82,0.00,,,0.00,weatherlink.com 1.10,2013-08-12 13:09:00,
2013-08-12 09:24:00,84.9,78.0,30.05,NW,310,3.0,9.0,79,0.00,,,0.00,weatherlink.com 1.10,2013-08-12 13:24:00,
2013-08-12 09:39:00,85.9,78.0,30.04,ESE,102,2.0,7.0,77,0.00,,,0.00,weatherlink.com 1.10,2013-08-12 13:39:00,
2013-08-12 09:54:00,86.6,79.0,30.04,NW,310,3.0,6.0,77,0.00,,,0.00,weatherlink.com 1.10,2013-08-12 13:54:00,
2013-08-12 10:09:00,87.2,78.0,30.04,West,279,1.0,7.0,75,0.00,,,0.00,weatherlink.com 1.10,2013-08-12 14:09:00,
2013-08-12 10:24:00,87.3,79.0,30.04,NNW,339,2.0,8.0,75,0.00,,,0.00,weatherlink.com 1.10,2013-08-12 14:24:00,
2013-08-12 10:39:00,87.7,79.0,30.04,NNW,334,2.0,12.0,75,0.00,,,0.00,weatherlink.com 1.10,2013-08-12 14:39:00,
2013-08-12 10:54:00,88.9,80.0,30.04,NW,304,1.0,7.0,75,0.00,,,0.00,weatherlink.com 1.10,2013-08-12 14:54:00,
2013-08-12 11:09:00,89.6,79.0,30.04,NW,319,3.0,5.0,71,0.00,,,0.00,weatherlink.com 1.10,2013-08-12 15:09:00,
2013-08-12 11:24:00,90.3,79.0,30.04,NNW,331,4.0,6.0,70,0.00,,,0.00,weatherlink.com 1.10,2013-08-12 15:24:00,
2013-08-12 11:40:00,90.5,78.0,30.03,West,262,2.0,8.0,67,0.00,,,0.00,weatherlink.com 1.10,2013-08-12 15:40:00,
2013-08-12 11:55:00,90.8,77.0,30.03,West,279,3.0,10.0,65,0.00,,,0.00,weatherlink.com 1.10,2013-08-12 15:55:00,
2013-08-12 12:10:00,91.1,77.0,30.02,NW,312,3.0,10.0,63,0.00,,,0.00,weatherlink.com 1.10,2013-08-12 16:10:00,
2013-08-12 12:25:00,91.2,77.0,30.02,NW,309,2.0,12.0,63,0.00,,,0.00,weatherlink.com 1.10,2013-08-12 16:25:00,
2013-08-12 12:40:00,91.8,78.0,30.01,NNW,327,3.0,9.0,65,0.00,,,0.00,weatherlink.com 1.10,2013-08-12 16:40:00,
2013-08-12 12:55:00,91.5,77.0,30.01,NNW,335,4.0,9.0,63,0.00,,,0.00,weatherlink.com 1.10,2013-08-12 16:55:00,
2013-08-12 13:10:00,91.5,77.0,30.01,NNW,334,4.0,9.0,62,0.00,,,0.00,weatherlink.com 1.10,2013-08-12 17:10:00,
2013-08-12 13:25:00,92.7,77.0,30.00,North,4,1.0,9.0,60,0.00,,,0.00,weatherlink.com 1.10,2013-08-12 17:25:00,
2013-08-12 13:40:00,92.6,77.0,30.00,NW,315,3.0,13.0,60,0.00,,,0.00,weatherlink.com 1.10,2013-08-12 17:40:00,
2013-08-12 13:55:00,92.2,77.0,30.00,West,262,2.0,8.0,62,0.00,,,0.00,weatherlink.com 1.10,2013-08-12 17:55:00,
2013-08-12 14:10:00,92.7,78.0,29.99,WNW,302,2.0,6.0,62,0.00,,,0.00,weatherlink.com 1.10,2013-08-12 18:10:00,
2013-08-12 14:25:00,93.2,79.0,29.99,NNE,27,2.0,6.0,63,0.00,,,0.00,weatherlink.com 1.10,2013-08-12 18:25:00,
2013-08-12 14:40:00,93.9,76.0,29.99,NW,319,4.0,8.0,57,0.00,,,0.00,weatherlink.com 1.10,2013-08-12 18:40:00,
2013-08-12 14:55:00,94.2,77.0,29.98,NW,305,1.0,7.0,58,0.00,,,0.00,weatherlink.com 1.10,2013-08-12 18:55:00,
2013-08-12 15:10:00,93.9,77.0,29.98,ESE,122,1.0,8.0,58,0.00,,,0.00,weatherlink.com 1.10,2013-08-12 19:10:00,
2013-08-12 15:40:00,93.6,77.0,29.97,NNW,337,0.0,3.0,58,0.00,,,0.00,weatherlink.com 1.10,2013-08-12 19:40:00,
2013-08-12 15:55:00,94.0,77.0,29.96,WNW,289,2.0,4.0,58,0.00,,,0.00,weatherlink.com 1.10,2013-08-12 19:55:00,
2013-08-12 16:10:00,93.3,78.0,29.96,NW,319,3.0,6.0,62,0.00,,,0.00,weatherlink.com 1.10,2013-08-12 20:10:00,
2013-08-12 16:25:00,93.8,77.0,29.95,South,181,2.0,3.0,59,0.00,,,0.00,weatherlink.com 1.10,2013-08-12 20:25:00,
2013-08-12 16:40:00,92.6,77.0,29.95,West,261,1.0,4.0,61,0.00,,,0.00,weatherlink.com 1.10,2013-08-12 20:40:00,
2013-08-12 16:55:00,91.7,78.0,29.95,SW,222,0.0,1.0,65,0.00,,,0.00,weatherlink.com 1.10,2013-08-12 20:55:00,
2013-08-12 17:10:00,92.6,78.0,29.95,NW,315,1.0,4.0,62,0.00,,,0.00,weatherlink.com 1.10,2013-08-12 21:10:00,
2013-08-12 17:25:00,92.4,78.0,29.95,West,270,0.0,4.0,63,0.00,,,0.00,weatherlink.com 1.10,2013-08-12 21:25:00,
2013-08-12 17:40:00,92.5,79.0,29.95,South,181,1.0,1.0,64,0.00,,,0.00,weatherlink.com 1.10,2013-08-12 21:40:00,
2013-08-12 17:55:00,92.5,81.0,29.95,WSW,258,3.0,5.0,68,0.00,,,0.00,weatherlink.com 1.10,2013-08-12 21:55:00,
2013-08-12 18:10:00,89.8,80.0,29.95,WSW,255,1.0,6.0,72,0.00,,,0.00,weatherlink.com 1.10,2013-08-12 22:10:00,
2013-08-12 18:25:00,89.6,80.0,29.95,SW,215,1.0,6.0,74,0.00,,,0.00,weatherlink.com 1.10,2013-08-12 22:25:00,
2013-08-12 18:40:00,89.8,81.0,29.95,SSE,148,1.0,4.0,74,0.00,,,0.00,weatherlink.com 1.10,2013-08-12 22:40:00,
2013-08-12 18:55:00,89.0,80.0,29.95,ESE,118,0.0,3.0,75,0.00,,,0.00,weatherlink.com 1.10,2013-08-12 22:55:00,
2013-08-12 19:10:00,87.9,80.0,29.95,WSW,244,0.0,2.0,77,0.00,,,0.00,weatherlink.com 1.10,2013-08-12 23:10:00,
2013-08-12 19:25:00,86.8,80.0,29.95,West,262,0.0,4.0,79,0.00,,,0.00,weatherlink.com 1.10,2013-08-12 23:25:00,
2013-08-12 19:40:00,86.0,79.0,29.95,SE,144,0.0,2.0,80,0.00,,,0.00,weatherlink.com 1.10,2013-08-12 23:40:00,
2013-08-12 19:55:00,85.1,79.0,29.95,SE,144,1.0,2.0,82,0.00,,,0.00,weatherlink.com 1.10,2013-08-12 23:55:00,
2013-08-12 20:10:00,84.4,79.0,29.95,South,180,0.0,1.0,83,0.00,,,0.00,weatherlink.com 1.10,2013-08-13 00:10:00,
2013-08-12 20:25:00,83.7,78.0,29.95,SE,137,0.0,2.0,84,0.00,,,0.00,weatherlink.com 1.10,2013-08-13 00:25:00,
2013-08-12 20:40:00,83.4,79.0,29.96,SW,225,0.0,2.0,85,0.00,,,0.00,weatherlink.com 1.10,2013-08-13 00:40:00,
2013-08-12 20:55:00,83.1,79.0,29.96,WSW,243,0.0,3.0,86,0.00,,,0.00,weatherlink.com 1.10,2013-08-13 00:55:00,
2013-08-12 21:10:00,82.8,78.0,29.97,SW,226,0.0,2.0,86,0.00,,,0.00,weatherlink.com 1.10,2013-08-13 01:10:00,
2013-08-12 21:25:00,82.7,78.0,29.97,SW,225,0.0,4.0,86,0.00,,,0.00,weatherlink.com 1.10,2013-08-13 01:25:00,
2013-08-12 21:40:00,82.7,78.0,29.98,West,268,1.0,3.0,86,0.00,,,0.00,weatherlink.com 1.10,2013-08-13 01:40:00,
2013-08-12 21:55:00,82.5,78.0,29.98,SW,219,1.0,3.0,86,0.00,,,0.00,weatherlink.com 1.10,2013-08-13 01:55:00,
2013-08-12 22:10:00,82.3,78.0,29.98,WSW,243,0.0,4.0,87,0.00,,,0.00,weatherlink.com 1.10,2013-08-13 02:10:00,
2013-08-12 22:25:00,82.1,78.0,29.98,WSW,257,0.0,3.0,88,0.00,,,0.00,weatherlink.com 1.10,2013-08-13 02:25:00,
2013-08-12 22:41:00,82.0,79.0,29.97,WSW,255,0.0,2.0,89,0.00,,,0.00,weatherlink.com 1.10,2013-08-13 02:41:00,
2013-08-12 22:56:00,81.9,79.0,29.98,SSW,213,2.0,3.0,90,0.00,,,0.00,weatherlink.com 1.10,2013-08-13 02:56:00,
2013-08-12 23:11:00,81.7,79.0,29.97,WSW,246,3.0,3.0,91,0.00,,,0.00,weatherlink.com 1.10,2013-08-13 03:11:00,
2013-08-12 23:26:00,81.6,79.0,29.96,SW,235,1.0,6.0,91,0.00,,,0.00,weatherlink.com 1.10,2013-08-13 03:26:00,
2013-08-12 23:42:00,81.5,79.0,29.96,West,276,0.0,5.0,92,0.00,,,0.00,weatherlink.com 1.10,2013-08-13 03:42:00,
2013-08-12 23:56:00,81.4,79.0,29.96,NW,324,1.0,5.0,92,0.00,,,0.00,weatherlink.com 1.10,2013-08-13 03:56:00,